This is the latest recevied weather packets stored in our database for station/object DL9LA-13. If no packets are shown the sender has not sent any weather packets the latest 10 day(s).
| Time | Temp. | Humidity | Pressure | Rain* | Wind** | Luminosity | Snow |
|---|---|---|---|---|---|---|---|
| 1788394751 | 20° C | 79% | 976 hPa | - | - | - | - |
| 1788393544 | 20° C | 79% | 976 hPa | - | - | - | - |
| 1788392337 | 20° C | 76% | 976 hPa | - | - | - | - |
| 1788391733 | 20.56° C | 75% | 976 hPa | - | - | - | - |
| 1788389318 | 20.56° C | 75% | 976 hPa | - | - | - | - |
| 1788388715 | 20.56° C | 73% | 976 hPa | - | - | - | - |
| 1788387507 | 20.56° C | 74% | 976 hPa | - | - | - | - |
| 1788386904 | 20.56° C | 74% | 977 hPa | - | - | - | - |
| 1788386300 | 20.56° C | 73% | 976 hPa | - | - | - | - |
| 1788381471 | 21.67° C | 70% | 976 hPa | - | - | - | - |
| 1788380867 | 21.67° C | 71% | 976 hPa | - | - | - | - |
| 1788379660 | 21.67° C | 71% | 976 hPa | - | - | - | - |
| 1788379056 | 21.67° C | 67% | 976 hPa | - | - | - | - |
| 1788374831 | 22.78° C | 61% | 975 hPa | - | - | - | - |
| 1788373624 | 23.89° C | 51% | 975 hPa | - | - | - | - |
| 1788371813 | 24.44° C | 48% | 975 hPa | - | - | - | - |
| 1788356722 | 26.67° C | 40% | 975 hPa | - | - | - | - |
| 1788340423 | 23.89° C | 44% | 977 hPa | - | - | - | - |
| 1788336802 | 23.33° C | 48% | 977 hPa | - | - | - | - |
| 1788329558 | 28.33° C | 37% | 977 hPa | - | - | - | - |
| 1788327747 | 34.44° C | 29% | 977 hPa | - | - | - | - |
| 1788309638 | 18.33° C | 77% | 977 hPa | - | - | - | - |
| 1788307223 | 18.33° C | 78% | 977 hPa | - | - | - | - |
| 1788304205 | 18.89° C | 75% | 977 hPa | - | - | - | - |
| 1788303601 | 18.89° C | 74% | 977 hPa | - | - | - | - |
* Rain since midnight (hover to see other rain measurements)
** Current wind speed in m/s (hover to see current wind gust speed)